createdAt,value
2023-01-09T00:01:21.260Z,5.97
2023-01-09T00:03:50.162Z,1.65
2023-01-09T00:06:16.810Z,1.65
2023-01-09T00:08:43.405Z,2.45
2023-01-09T00:11:10.357Z,2.03
2023-01-09T00:13:37.903Z,1.92
2023-01-09T00:16:06.412Z,1.58
2023-01-09T00:18:35.141Z,1.20
2023-01-09T00:21:03.763Z,0.95
2023-01-09T00:23:30.695Z,0.98
2023-01-09T00:26:07.851Z,0.70
2023-01-09T00:28:37.292Z,0.90
2023-01-09T00:31:09.350Z,0.90
2023-01-09T00:33:40.437Z,0.88
2023-01-09T00:36:09.292Z,0.75
2023-01-09T00:38:36.760Z,0.77
2023-01-09T00:41:06.446Z,0.80
2023-01-09T00:43:39.434Z,0.93
2023-01-09T00:46:09.263Z,1.25
2023-01-09T00:48:39.335Z,2.60
2023-01-09T00:51:07.490Z,2.40
2023-01-09T00:53:36.910Z,3.63
2023-01-09T00:56:07.732Z,3.33
2023-01-09T00:58:35.022Z,2.72
2023-01-09T01:01:01.941Z,4.78
2023-01-09T01:03:31.294Z,3.08
2023-01-09T01:06:17.227Z,2.05
2023-01-09T01:08:45.506Z,0.60
2023-01-09T01:11:12.440Z,0.60
2023-01-09T01:13:40.838Z,0.30
2023-01-09T01:16:10.327Z,0.40
2023-01-09T01:18:37.876Z,0.52
2023-01-09T01:21:09.246Z,0.40
2023-01-09T01:23:37.427Z,0.35
2023-01-09T01:26:06.867Z,0.30
2023-01-09T01:28:37.171Z,0.50
2023-01-09T01:31:04.424Z,0.30
2023-01-09T01:33:32.269Z,0.30
2023-01-09T01:36:07.609Z,0.28
2023-01-09T01:39:02.538Z,0.20
2023-01-09T01:41:29.314Z,0.20
2023-01-09T01:44:02.595Z,0.20
2023-01-09T01:46:30.790Z,0.30
2023-01-09T01:49:12.439Z,0.30
2023-01-09T01:51:48.150Z,0.40
2023-01-09T01:54:24.315Z,0.30
2023-01-09T01:56:57.686Z,0.30
2023-01-09T01:59:33.828Z,0.20
2023-01-09T02:02:06.805Z,0.20
2023-01-09T02:04:36.239Z,0.30
2023-01-09T02:07:07.306Z,0.20
2023-01-09T02:09:34.415Z,0.30
2023-01-09T02:12:15.334Z,0.28
2023-01-09T02:14:41.996Z,0.30
2023-01-09T02:17:26.419Z,0.30
2023-01-09T02:20:04.518Z,0.30
2023-01-09T02:22:39.155Z,0.20
2023-01-09T02:25:31.144Z,0.30
2023-01-09T02:28:06.762Z,0.30
2023-01-09T02:30:42.439Z,0.30
2023-01-09T02:33:19.652Z,0.30
2023-01-09T02:35:58.147Z,0.30
2023-01-09T02:38:55.116Z,0.35
2023-01-09T02:41:34.277Z,0.20
2023-01-09T02:44:20.938Z,0.47
2023-01-09T02:46:47.862Z,0.30
2023-01-09T02:49:18.295Z,0.30
2023-01-09T02:52:32.113Z,0.40
2023-01-09T02:54:58.704Z,0.28
2023-01-09T02:57:37.129Z,0.30
2023-01-09T03:00:12.052Z,0.47
2023-01-09T03:02:50.634Z,0.43
2023-01-09T03:05:32.034Z,0.52
2023-01-09T03:08:03.438Z,0.40
2023-01-09T03:10:57.518Z,0.40
2023-01-09T03:13:25.344Z,0.52
2023-01-09T03:15:56.669Z,0.40
2023-01-09T03:18:29.542Z,0.30
2023-01-09T03:20:56.279Z,0.30
2023-01-09T03:23:25.330Z,0.40
2023-01-09T03:25:54.352Z,0.30
2023-01-09T03:28:30.206Z,0.30
2023-01-09T03:30:56.861Z,0.40
2023-01-09T03:33:23.538Z,0.30
2023-01-09T03:35:50.117Z,0.45
2023-01-09T03:38:22.377Z,0.20
2023-01-09T03:40:49.190Z,0.30
2023-01-09T03:43:19.120Z,0.38
2023-01-09T03:45:45.794Z,0.40
2023-01-09T03:48:12.613Z,1.05
2023-01-09T03:50:45.211Z,0.50
2023-01-09T03:53:16.117Z,0.63
2023-01-09T03:55:49.386Z,0.40
2023-01-09T03:58:17.282Z,0.50
2023-01-09T04:00:45.688Z,1.70
2023-01-09T04:03:12.450Z,0.63
2023-01-09T04:05:42.835Z,1.10
2023-01-09T04:08:12.118Z,0.70
2023-01-09T04:10:39.002Z,0.38
2023-01-09T04:13:05.692Z,0.50
2023-01-09T04:15:32.306Z,0.50
2023-01-09T04:18:01.343Z,0.40
2023-01-09T04:20:28.291Z,0.50
2023-01-09T04:22:56.114Z,0.38
2023-01-09T04:25:24.321Z,0.22
2023-01-09T04:27:52.300Z,0.50
2023-01-09T04:30:24.008Z,0.40
2023-01-09T04:32:56.330Z,0.38
2023-01-09T04:35:23.071Z,0.43
2023-01-09T04:37:50.310Z,0.32
2023-01-09T04:40:18.769Z,0.40
2023-01-09T04:42:49.252Z,0.55
2023-01-09T04:45:20.549Z,0.40
2023-01-09T04:47:48.267Z,0.40
2023-01-09T04:50:17.516Z,0.40
2023-01-09T04:52:44.135Z,0.30
2023-01-09T04:55:10.917Z,0.50
2023-01-09T04:57:42.096Z,0.52
2023-01-09T05:00:11.317Z,0.35
2023-01-09T05:02:38.124Z,0.40
2023-01-09T05:05:05.994Z,0.40
2023-01-09T05:07:38.968Z,0.68
2023-01-09T05:10:06.505Z,0.47
2023-01-09T05:12:35.421Z,0.57
2023-01-09T05:15:03.321Z,0.47
2023-01-09T05:17:30.034Z,0.50
2023-01-09T05:19:56.699Z,0.60
2023-01-09T05:22:23.248Z,0.73
2023-01-09T05:24:50.010Z,0.75
2023-01-09T05:27:16.884Z,0.40
2023-01-09T05:29:43.580Z,0.70
2023-01-09T05:32:12.367Z,1.00
2023-01-09T05:34:39.145Z,0.60
2023-01-09T05:37:05.922Z,0.40
2023-01-09T05:39:35.088Z,0.50
2023-01-09T05:42:01.701Z,0.50
2023-01-09T05:44:30.517Z,0.40
2023-01-09T05:46:57.230Z,0.40
2023-01-09T05:49:23.928Z,0.40
2023-01-09T05:51:53.080Z,0.50
2023-01-09T05:54:24.087Z,0.50
2023-01-09T05:56:53.033Z,0.35
2023-01-09T05:59:19.617Z,0.43
2023-01-09T06:01:46.339Z,0.40
2023-01-09T06:04:13.174Z,0.80
2023-01-09T06:06:40.253Z,0.40
2023-01-09T06:09:11.741Z,0.47
2023-01-09T06:11:38.517Z,0.85
2023-01-09T06:14:05.918Z,0.30
2023-01-09T06:16:32.568Z,0.40
2023-01-09T06:18:59.428Z,0.50
2023-01-09T06:21:28.608Z,0.45
2023-01-09T06:23:58.385Z,0.35
2023-01-09T06:26:26.200Z,0.40
2023-01-09T06:28:55.023Z,0.40
2023-01-09T06:31:25.175Z,0.63
2023-01-09T06:33:51.900Z,0.40
2023-01-09T06:36:22.628Z,0.75
2023-01-09T06:38:49.594Z,1.50
2023-01-09T06:41:18.885Z,0.70
2023-01-09T06:43:48.062Z,0.65
2023-01-09T06:46:17.893Z,0.70
2023-01-09T06:48:44.587Z,0.68
2023-01-09T06:51:13.321Z,0.80
2023-01-09T06:53:39.958Z,0.88
2023-01-09T06:56:08.740Z,0.90
2023-01-09T06:58:36.037Z,0.98
2023-01-09T07:01:05.908Z,0.85
2023-01-09T07:03:33.855Z,0.60
2023-01-09T07:06:00.653Z,0.68
2023-01-09T07:08:27.282Z,0.90
2023-01-09T07:10:53.887Z,0.52
2023-01-09T07:13:20.448Z,0.85
2023-01-09T07:15:48.937Z,0.60
2023-01-09T07:18:15.657Z,0.63
2023-01-09T07:20:42.371Z,0.85
2023-01-09T07:23:12.160Z,0.65
2023-01-09T07:25:41.198Z,0.73
2023-01-09T07:28:07.974Z,0.65
2023-01-09T07:30:37.346Z,0.50
2023-01-09T07:33:06.176Z,1.17
2023-01-09T07:35:35.253Z,0.82
2023-01-09T07:38:04.334Z,0.60
2023-01-09T07:40:30.931Z,0.70
2023-01-09T07:42:57.606Z,0.52
2023-01-09T07:45:24.209Z,0.80
2023-01-09T07:47:51.654Z,0.60
2023-01-09T07:50:19.095Z,0.60
2023-01-09T07:52:46.310Z,0.50
2023-01-09T07:55:15.534Z,0.73
2023-01-09T07:57:46.842Z,0.80
2023-01-09T08:00:16.219Z,0.77
2023-01-09T08:02:45.202Z,0.70
2023-01-09T08:05:14.231Z,0.80
2023-01-09T08:07:41.259Z,0.70
2023-01-09T08:10:11.088Z,0.60
2023-01-09T08:12:42.896Z,0.80
2023-01-09T08:15:40.646Z,0.80
2023-01-09T08:18:11.278Z,0.55
2023-01-09T08:20:41.523Z,0.57
2023-01-09T08:23:09.731Z,0.70
2023-01-09T08:25:43.665Z,1.25
2023-01-09T08:28:10.711Z,0.63
2023-01-09T08:30:40.672Z,0.73
2023-01-09T08:33:08.561Z,0.50
2023-01-09T08:35:44.534Z,0.47
2023-01-09T08:38:11.422Z,0.70
2023-01-09T08:40:38.814Z,0.52
2023-01-09T08:43:27.702Z,0.82
2023-01-09T08:46:15.853Z,1.00
2023-01-09T08:48:47.143Z,0.93
2023-01-09T08:51:14.355Z,0.80
2023-01-09T08:53:42.962Z,1.30
2023-01-09T08:56:14.110Z,0.95
2023-01-09T08:58:43.918Z,0.55
2023-01-09T09:01:13.593Z,0.50
2023-01-09T09:03:43.622Z,0.55
2023-01-09T09:06:13.745Z,0.52
2023-01-09T09:08:43.664Z,1.10
2023-01-09T09:11:11.616Z,1.10
2023-01-09T09:13:41.634Z,0.77
2023-01-09T09:16:08.350Z,0.85
2023-01-09T09:18:37.221Z,0.80
2023-01-09T09:21:03.920Z,0.90
2023-01-09T09:23:30.537Z,0.70
2023-01-09T09:25:59.853Z,1.20
2023-01-09T09:28:28.939Z,0.50
2023-01-09T09:30:55.569Z,0.75
2023-01-09T09:33:23.338Z,0.60
2023-01-09T09:35:50.035Z,0.40
2023-01-09T09:38:19.384Z,0.60
2023-01-09T09:41:05.071Z,0.43
2023-01-09T09:44:19.819Z,0.50
2023-01-09T09:47:05.328Z,0.60
2023-01-09T09:52:24.511Z,0.52
2023-01-09T09:54:54.170Z,0.68
2023-01-09T09:57:28.819Z,0.60
2023-01-09T09:59:56.186Z,1.38
2023-01-09T10:02:23.007Z,0.80
2023-01-09T10:05:06.998Z,0.40
2023-01-09T10:07:45.515Z,0.43
2023-01-09T10:10:45.668Z,0.55
2023-01-09T10:13:36.385Z,0.50
2023-01-09T10:16:35.395Z,0.65
2023-01-09T10:19:08.625Z,0.30
2023-01-09T10:21:53.260Z,0.40
2023-01-09T10:24:45.787Z,0.65
2023-01-09T10:27:27.703Z,0.63
2023-01-09T10:30:02.992Z,0.70
2023-01-09T10:32:46.927Z,0.63
2023-01-09T10:35:22.454Z,1.50
2023-01-09T10:37:52.563Z,0.60
2023-01-09T10:40:28.932Z,0.80
2023-01-09T10:43:01.764Z,0.68
2023-01-09T10:45:54.921Z,1.98
2023-01-09T10:48:27.283Z,1.15
2023-01-09T10:50:58.791Z,1.00
2023-01-09T10:53:41.169Z,0.90
2023-01-09T10:56:29.928Z,0.73
2023-01-09T10:58:56.548Z,0.70
2023-01-09T11:01:30.361Z,0.88
2023-01-09T11:04:01.505Z,0.82
2023-01-09T11:07:01.583Z,0.85
2023-01-09T11:09:48.243Z,0.70
2023-01-09T11:12:29.808Z,0.90
2023-01-09T11:15:18.741Z,0.60
2023-01-09T11:18:19.301Z,0.60
2023-01-09T11:20:46.692Z,1.70
2023-01-09T11:23:30.512Z,1.15
2023-01-09T11:26:00.202Z,0.70
2023-01-09T11:29:06.793Z,1.15
2023-01-09T11:31:37.314Z,0.82
2023-01-09T11:34:35.725Z,0.63
2023-01-09T11:37:08.439Z,0.63
2023-01-09T11:42:49.260Z,1.00
2023-01-09T11:45:24.430Z,0.80
2023-01-09T11:47:52.707Z,1.55
2023-01-09T11:50:30.488Z,0.68
2023-01-09T11:53:19.601Z,1.20
2023-01-09T11:55:56.363Z,0.60
2023-01-09T11:58:24.202Z,0.70
2023-01-09T12:01:00.282Z,0.80
2023-01-09T12:04:01.211Z,1.00
2023-01-09T12:06:46.634Z,1.40
2023-01-09T12:09:38.360Z,0.88
2023-01-09T12:12:18.457Z,0.80
2023-01-09T12:15:29.934Z,1.08
2023-01-09T12:18:29.253Z,0.88
2023-01-09T12:21:22.107Z,0.77
2023-01-09T12:24:00.317Z,0.73
2023-01-09T12:26:56.645Z,0.95
2023-01-09T12:29:55.167Z,0.73
2023-01-09T12:32:51.150Z,0.90
2023-01-09T12:35:44.467Z,1.00
2023-01-09T12:38:45.064Z,1.40
2023-01-09T12:41:24.427Z,0.63
2023-01-09T12:44:27.353Z,1.30
2023-01-09T12:47:22.978Z,0.70
2023-01-09T12:49:55.469Z,0.80
2023-01-09T12:52:31.462Z,0.68
2023-01-09T12:55:12.661Z,0.70
2023-01-09T12:57:46.527Z,0.63
2023-01-09T13:00:22.988Z,0.90
2023-01-09T13:03:12.044Z,1.10
2023-01-09T13:05:48.210Z,0.85
2023-01-09T13:08:30.134Z,0.93
2023-01-09T13:11:20.453Z,1.02
2023-01-09T13:14:03.950Z,0.68
2023-01-09T13:16:40.820Z,0.80
2023-01-09T13:19:24.845Z,0.75
2023-01-09T13:21:52.869Z,1.02
2023-01-09T13:24:38.023Z,1.90
2023-01-09T13:27:16.570Z,1.50
2023-01-09T13:29:49.777Z,1.10
2023-01-09T13:32:19.141Z,1.42
2023-01-09T13:34:49.818Z,1.08
2023-01-09T13:37:26.683Z,1.15
2023-01-09T13:40:01.823Z,1.02
2023-01-09T13:42:39.093Z,0.80
2023-01-09T13:45:27.355Z,0.55
2023-01-09T13:48:10.222Z,0.60
2023-01-09T13:50:44.448Z,0.60
2023-01-09T13:53:17.527Z,0.80
2023-01-09T13:55:56.186Z,1.00
2023-01-09T13:58:37.556Z,0.63
2023-01-09T14:04:45.189Z,0.90
2023-01-09T14:07:23.581Z,0.98
2023-01-09T14:10:03.589Z,1.00
2023-01-09T14:12:42.027Z,1.17
2023-01-09T14:15:31.589Z,1.10
2023-01-09T14:18:19.591Z,0.88
2023-01-09T14:20:58.821Z,0.93
2023-01-09T14:23:51.544Z,1.08
2023-01-09T14:26:40.834Z,1.33
2023-01-09T14:29:39.104Z,1.20
2023-01-09T14:32:29.930Z,1.52
2023-01-09T14:35:22.986Z,1.05
2023-01-09T14:40:25.225Z,0.63
2023-01-09T14:42:58.557Z,1.08
2023-01-09T14:45:28.958Z,0.90
2023-01-09T14:48:05.325Z,0.80
2023-01-09T14:50:54.517Z,1.20
2023-01-09T14:53:33.856Z,1.73
2023-01-09T14:56:04.616Z,2.22
2023-01-09T14:58:36.775Z,2.22
2023-01-09T15:01:23.044Z,1.70
2023-01-09T15:04:00.931Z,1.00
2023-01-09T15:06:35.620Z,0.90
2023-01-09T15:09:08.038Z,1.02
2023-01-09T15:11:39.724Z,1.00
2023-01-09T15:14:27.998Z,1.20
2023-01-09T15:17:02.370Z,0.75
2023-01-09T15:19:31.401Z,1.08
2023-01-09T15:22:01.174Z,0.65
2023-01-09T15:24:31.640Z,0.50
2023-01-09T15:27:03.321Z,0.60
2023-01-09T15:29:32.130Z,0.85
2023-01-09T15:32:04.831Z,1.20
2023-01-09T15:37:02.230Z,1.45
2023-01-09T15:39:38.513Z,2.85
2023-01-09T15:42:57.109Z,2.45
2023-01-09T15:45:32.336Z,1.80
2023-01-09T15:48:17.908Z,1.08
2023-01-09T15:50:49.561Z,1.30
2023-01-09T15:53:24.813Z,1.98
2023-01-09T15:56:19.552Z,1.52
2023-01-09T15:58:51.335Z,2.45
2023-01-09T16:01:28.977Z,2.65
2023-01-09T16:04:10.615Z,1.33
2023-01-09T16:06:47.169Z,1.23
2023-01-09T16:09:27.950Z,2.72
2023-01-09T16:12:00.673Z,2.85
2023-01-09T16:17:02.913Z,3.60
2023-01-09T16:19:32.408Z,1.27
2023-01-09T16:22:01.677Z,1.50
2023-01-09T16:24:39.661Z,1.52
2023-01-09T16:27:23.408Z,1.08
2023-01-09T16:29:55.279Z,1.75
2023-01-09T16:32:30.883Z,0.98
2023-01-09T16:35:14.028Z,0.82
2023-01-09T16:37:40.629Z,1.83
2023-01-09T16:40:16.272Z,3.80
2023-01-09T16:43:07.667Z,4.82
2023-01-09T16:45:40.213Z,2.67
2023-01-09T16:50:39.496Z,1.58
2023-01-09T16:53:17.259Z,1.30
2023-01-09T16:55:45.800Z,1.55
2023-01-09T16:58:30.228Z,1.50
2023-01-09T17:00:57.846Z,1.48
2023-01-09T17:03:24.791Z,2.30
2023-01-09T17:05:55.270Z,1.52
2023-01-09T17:08:43.246Z,1.55
2023-01-09T17:11:20.137Z,1.63
2023-01-09T17:13:47.471Z,2.80
2023-01-09T17:16:17.473Z,1.58
2023-01-09T17:18:44.785Z,1.10
2023-01-09T17:21:23.925Z,1.40
2023-01-09T17:24:11.664Z,1.10
2023-01-09T17:27:13.094Z,1.70
2023-01-09T17:29:39.976Z,1.20
2023-01-09T17:32:08.943Z,1.35
2023-01-09T17:34:37.685Z,1.80
2023-01-09T17:37:06.700Z,1.23
2023-01-09T17:39:33.438Z,0.98
2023-01-09T17:42:03.451Z,1.20
2023-01-09T17:44:34.936Z,1.52
2023-01-09T17:47:11.605Z,1.30
2023-01-09T17:49:41.004Z,1.63
2023-01-09T17:52:07.949Z,1.42
2023-01-09T17:54:36.744Z,1.30
2023-01-09T17:57:05.711Z,1.08
2023-01-09T17:59:35.392Z,1.55
2023-01-09T18:02:04.186Z,1.10
2023-01-09T18:04:30.990Z,1.40
2023-01-09T18:06:57.838Z,1.08
2023-01-09T18:09:49.785Z,0.88
2023-01-09T18:12:21.925Z,1.25
2023-01-09T18:14:52.296Z,0.90
2023-01-09T18:17:19.959Z,1.10
2023-01-09T18:19:49.412Z,1.40
2023-01-09T18:22:16.009Z,1.08
2023-01-09T18:24:44.913Z,1.05
2023-01-09T18:27:14.132Z,1.65
2023-01-09T18:29:41.398Z,1.35
2023-01-09T18:32:10.968Z,1.50
2023-01-09T18:34:38.809Z,1.27
2023-01-09T18:37:05.666Z,0.98
2023-01-09T18:39:32.318Z,1.35
2023-01-09T18:41:59.528Z,3.30
2023-01-09T18:44:26.301Z,1.80
2023-01-09T18:46:54.543Z,1.00
2023-01-09T18:49:21.122Z,1.38
2023-01-09T18:51:49.815Z,1.70
2023-01-09T18:54:18.921Z,1.33
2023-01-09T18:57:13.316Z,1.92
2023-01-09T18:59:46.011Z,1.33
2023-01-09T19:04:51.044Z,0.75
2023-01-09T19:07:18.118Z,1.00
2023-01-09T19:09:45.221Z,1.35
2023-01-09T19:12:12.086Z,1.48
2023-01-09T19:14:41.932Z,1.80
2023-01-09T19:17:08.595Z,2.35
2023-01-09T19:19:35.406Z,1.63
2023-01-09T19:22:04.380Z,1.52
2023-01-09T19:24:34.729Z,1.65
2023-01-09T19:27:05.060Z,1.55
2023-01-09T19:29:31.988Z,1.98
2023-01-09T19:31:58.724Z,1.70
2023-01-09T19:34:25.508Z,1.40
2023-01-09T19:36:52.550Z,1.45
2023-01-09T19:39:21.562Z,1.83
2023-01-09T19:41:48.325Z,2.38
2023-01-09T19:44:15.201Z,2.40
2023-01-09T19:46:41.824Z,2.08
2023-01-09T19:49:08.761Z,2.00
2023-01-09T19:51:35.595Z,1.30
2023-01-09T19:54:02.326Z,1.73
2023-01-09T19:59:19.076Z,2.30
2023-01-09T20:01:48.410Z,2.03
2023-01-09T20:04:16.678Z,1.92
2023-01-09T20:06:48.361Z,2.88
2023-01-09T20:09:21.676Z,3.13
2023-01-09T20:11:50.208Z,2.38
2023-01-09T20:14:20.078Z,3.25
2023-01-09T20:16:53.373Z,2.33
2023-01-09T20:19:21.635Z,2.13
2023-01-09T20:21:51.982Z,1.40
2023-01-09T20:26:49.352Z,1.60
2023-01-09T20:29:18.699Z,1.85
2023-01-09T20:31:45.582Z,2.40
2023-01-09T20:34:14.964Z,1.98
2023-01-09T20:36:45.639Z,1.65
2023-01-09T20:39:12.928Z,1.77
2023-01-09T20:41:39.918Z,1.88
2023-01-09T20:44:11.213Z,2.25
2023-01-09T20:46:42.911Z,2.22
2023-01-09T20:49:12.024Z,1.58
2023-01-09T20:51:45.370Z,1.58
2023-01-09T20:54:15.675Z,1.42
2023-01-09T20:56:42.745Z,1.23
2023-01-09T20:59:16.450Z,1.35
2023-01-09T21:01:43.454Z,1.50
2023-01-09T21:04:10.235Z,1.65
2023-01-09T21:06:39.514Z,1.35
2023-01-09T21:09:06.271Z,1.48
2023-01-09T21:11:34.291Z,1.48
2023-01-09T21:17:27.619Z,1.27
2023-01-09T21:28:48.286Z,1.42
2023-01-09T21:31:18.695Z,1.25
2023-01-09T21:33:45.745Z,1.48
2023-01-09T21:42:36.748Z,1.75
2023-01-09T21:45:35.228Z,1.42
2023-01-09T21:48:05.899Z,1.10
2023-01-09T21:50:33.372Z,1.42
2023-01-09T21:53:03.277Z,1.88
2023-01-09T21:55:33.112Z,1.45
2023-01-09T21:58:04.316Z,1.88
2023-01-09T22:00:33.303Z,1.27
2023-01-09T22:03:05.120Z,1.25
2023-01-09T22:05:31.793Z,1.00
2023-01-09T22:07:58.530Z,1.10
2023-01-09T22:10:25.155Z,1.20
2023-01-09T22:13:15.218Z,0.77
2023-01-09T22:15:44.081Z,1.10
2023-01-09T22:18:15.590Z,1.10
2023-01-09T22:20:42.277Z,1.30
2023-01-09T22:23:09.544Z,1.08
2023-01-09T22:25:41.218Z,0.80
2023-01-09T22:28:12.119Z,0.75
2023-01-09T22:30:42.536Z,0.88
2023-01-09T22:33:10.463Z,0.73
2023-01-09T22:35:38.526Z,0.73
2023-01-09T22:38:05.438Z,0.85
2023-01-09T22:40:32.470Z,0.82
2023-01-09T22:42:59.127Z,0.90
2023-01-09T22:45:25.876Z,0.60
2023-01-09T22:47:52.567Z,0.60
2023-01-09T22:50:21.553Z,0.80
2023-01-09T22:52:50.852Z,0.77
2023-01-09T22:55:19.947Z,0.90
2023-01-09T22:57:46.501Z,0.70
2023-01-09T23:00:14.594Z,0.60
2023-01-09T23:02:43.488Z,0.70
2023-01-09T23:05:14.640Z,0.90
2023-01-09T23:07:44.426Z,0.73
2023-01-09T23:10:13.482Z,0.80
2023-01-09T23:12:45.917Z,0.70
2023-01-09T23:15:12.730Z,0.75
2023-01-09T23:17:39.339Z,0.77
2023-01-09T23:20:06.493Z,0.80
2023-01-09T23:22:33.041Z,0.80
2023-01-09T23:24:59.597Z,0.68
2023-01-09T23:27:30.561Z,0.80
2023-01-09T23:29:58.893Z,0.93
2023-01-09T23:32:25.569Z,0.77
2023-01-09T23:34:52.438Z,1.10
2023-01-09T23:37:21.650Z,0.75
2023-01-09T23:39:48.239Z,1.10
2023-01-09T23:42:33.512Z,0.80
2023-01-09T23:45:00.177Z,0.85
2023-01-09T23:47:26.923Z,0.80
2023-01-09T23:49:55.852Z,0.80
2023-01-09T23:52:25.759Z,1.05
2023-01-09T23:54:55.955Z,1.08
2023-01-09T23:57:22.528Z,1.55
2023-01-09T23:59:49.253Z,0.93
